EW2263 Weather Reports


Display with metric or nautical units.
time (UTC)temp
F
wind
direction
speed
MPH
gust
MPH
rain 1hr
in
rain 24hr
in
rain mn
in
humidity
%
barometer
mb
20260906051511 72 273 0.0 0.0 0.00 0.00 0.00 92 1009.7
20260906050007 72 273 0.0 0.0 0.00 0.00 0.00 92 1009.8
20260906044508 72 273 0.0 0.0 0.00 0.00 0.00 92 1009.7
20260906043005 73 273 0.0 0.0 0.00 0.00 0.00 91 1009.8
20260906041503 73 273 0.0 0.0 0.00 0.00 0.00 91 1009.6
20260906040002 73 273 0.0 0.0 0.00 0.00 0.00 91 1009.8
20260906034503 74 273 0.0 0.0 0.00 0.00 0.00 90 1009.8
20260906033105 74 273 0.0 0.0 0.00 0.00 0.00 90 1009.9
20260906031600 74 273 0.0 0.0 0.00 0.00 0.00 90 1010.0
20260906030108 74 273 0.0 0.0 0.00 0.00 0.00 90 1009.9
20260906024622 74 144 0.0 0.0 0.00 0.00 0.00 90 1010.0
20260906023059 74 204 0.0 0.0 0.00 0.00 0.00 90 1010.0
20260906021559 74 223 0.0 0.0 0.00 0.00 0.00 90 1009.8
20260906020058 74 223 0.0 0.0 0.00 0.00 0.00 89 1009.6
20260906014608 74 222 0.0 0.0 0.00 0.00 0.00 89 1009.3
20260906013056 75 223 0.0 0.0 0.00 0.00 0.00 88 1009.2
20260906011556 75 223 0.0 0.0 0.00 0.00 0.00 88 1009.2
20260906010106 75 223 0.0 0.0 0.00 0.00 0.00 87 1009.1
20260906004555 76 223 0.0 0.0 0.00 0.00 0.00 86 1009.0
20260906003110 77 223 0.0 0.0 0.00 0.00 0.00 84 1008.9
20260906001554 77 212 0.0 0.0 0.00 0.00 0.00 84 1009.0
20260905234558 79 254 0.0 0.0 0.00 0.00 0.00 82 1008.3
20260905233053 80 254 0.0 0.0 0.00 0.00 0.00 80 1008.1
20260905231550 81 226 0.0 0.0 0.00 0.00 0.00 79 1008.2
20260905230152 81 38 0.0 0.0 0.00 0.00 0.00 79 1008.5
20260905224525 82 38 0.0 0.0 0.00 0.00 0.00 76 1008.5
20260905223014 82 319 0.0 0.0 0.00 0.00 0.00 77 1008.5
20260905221513 82 319 1.0 0.0 0.00 0.00 0.00 78 1008.4
20260905220016 82 319 0.0 0.0 0.00 0.00 0.00 76 1008.5
20260905214511 82 36 0.0 0.0 0.00 0.00 0.00 75 1008.7
20260905213026 82 96 1.0 0.0 0.00 0.00 0.00 73 1008.7
20260905211510 81 90 1.0 0.0 0.00 0.00 0.00 74 1009.0
20260905210012 81 13 2.0 0.0 0.00 0.00 0.00 72 1009.0
20260905204512 80 346 3.0 0.0 0.00 0.00 0.00 72 1009.0
20260905203009 80 337 2.0 0.0 0.00 0.00 0.00 74 1008.9
20260905201509 80 360 1.0 0.0 0.00 0.00 0.00 75 1008.9
20260905200008 80 355 1.0 0.0 0.00 0.00 0.00 75 1009.4
20260905194507 80 208 1.0 0.0 0.00 0.00 0.00 75 1009.1
20260905193007 80 272 2.0 0.0 0.00 0.00 0.00 74 1009.6
20260905191506 82 350 4.0 0.0 0.00 0.00 0.00 74 1010.4
20260905190010 84 277 4.0 0.0 0.00 0.00 0.00 72 1009.6
20260905184506 90 355 4.0 0.0 0.00 0.00 0.00 64 1009.4
20260905183005 92 9 2.0 0.0 0.00 0.00 0.00 57 1008.8
20260905181503 94 295 2.0 0.0 0.00 0.00 0.00 54 1009.3
20260905180002 96 263 2.0 0.0 0.00 0.00 0.00 52 1009.1
20260905174501 96 28 2.0 0.0 0.00 0.00 0.00 56 1009.1
20260905173100 96 355 2.0 0.0 0.00 0.00 0.00 56 1009.5
20260905171559 95 298 2.0 0.0 0.00 0.00 0.00 61 1009.5
20260905170059 95 316 3.0 0.0 0.00 0.00 0.00 59 1009.9
20260905164555 95 256 4.0 0.0 0.00 0.00 0.00 57 1010.3
20260905163051 94 225 3.0 0.0 0.00 0.00 0.00 58 1010.4
20260905161550 94 308 2.0 0.0 0.00 0.00 0.00 58 1010.5
20260905160051 94 59 2.0 0.0 0.00 0.00 0.00 61 1010.6
20260905154555 94 360 3.0 0.0 0.00 0.00 0.00 60 1010.7
20260905153046 93 45 2.0 0.0 0.00 0.00 0.00 62 1010.8
20260905151547 93 328 2.0 0.0 0.00 0.00 0.00 63 1010.8
20260905150049 92 355 1.0 0.0 0.00 0.00 0.00 67 1010.8
20260905144547 92 132 1.0 0.0 0.00 0.00 0.00 66 1010.8
20260905143049 91 73 0.0 0.0 0.00 0.00 0.00 69 1010.9
20260905141535 89 355 0.0 0.0 0.00 0.00 0.00 74 1011.0
20260905140030 87 195 1.0 0.0 0.00 0.00 0.00 76 1011.1
20260905134527 86 113 0.0 0.0 0.00 0.00 0.00 77 1011.3
20260905133023 83 261 0.0 0.0 0.00 0.00 0.00 83 1011.4
20260905131528 82 257 0.0 0.0 0.00 0.00 0.00 86 1011.4
20260905130015 79 355 0.0 0.0 0.00 0.00 0.00 90 1011.5
20260905124511 76 348 1.0 0.0 0.00 0.00 0.00 97 1011.4
20260905123009 74 285 1.0 0.0 0.00 0.00 0.00 98 1011.3
20260905121510 74 285 0.0 0.0 0.00 0.00 0.00 98 1011.2
20260905120007 73 211 0.0 0.0 0.00 0.00 0.00 97 1011.1
20260905114508 73 211 0.0 0.0 0.00 0.00 0.00 97 1010.9
20260905113007 72 211 0.0 0.0 0.00 0.00 0.00 96 1010.8
20260905111506 72 211 0.0 0.0 0.00 0.00 0.00 96 1010.7
20260905104544 72 211 0.0 0.0 0.00 0.00 0.00 96 1010.4
20260905103044 72 211 0.0 0.0 0.00 0.00 0.00 96 1010.2
20260905101546 72 211 0.0 0.0 0.00 0.00 0.00 95 1010.1
20260905100042 72 211 0.0 0.0 0.00 0.00 0.00 95 1010.0
20260905094541 72 211 0.0 0.0 0.00 0.00 0.00 95 1010.1
20260905093042 72 211 0.0 0.0 0.00 0.00 0.00 95 1010.1
20260905091541 72 211 0.0 0.0 0.00 0.00 0.00 95 1010.1
20260905090038 72 211 0.0 0.0 0.00 0.00 0.00 94 1010.1
20260905084536 72 211 0.0 0.0 0.00 0.00 0.00 94 1010.2
20260905083039 72 211 0.0 0.0 0.00 0.00 0.00 94 1010.4
20260905081535 72 211 0.0 0.0 0.00 0.00 0.00 94 1010.4
20260905080042 73 211 0.0 0.0 0.00 0.00 0.00 94 1010.6
20260905074531 73 211 0.0 0.0 0.00 0.00 0.00 94 1010.7
20260905073030 73 211 0.0 0.0 0.00 0.00 0.00 93 1010.8
20260905071531 73 211 0.0 0.0 0.00 0.00 0.00 94 1010.9
20260905070033 73 211 0.0 0.0 0.00 0.00 0.00 93 1011.0
20260905064532 73 211 0.0 0.0 0.00 0.00 0.00 93 1010.9
20260905063024 74 211 0.0 0.0 0.00 0.00 0.00 93 1011.0
20260905061522 74 211 0.0 0.0 0.00 0.00 0.00 93 1011.2
20260905060032 74 211 0.0 0.0 0.00 0.00 0.00 93 1011.4
20260905054518 74 211 0.0 0.0 0.00 0.00 0.00 93 1011.5
20260905053028 74 211 0.0 0.0 0.00 0.00 0.00 93 1011.5